Time;durP1;ratioP1;P1;durP2;ratioP2;P2;SDS_P1;SDS_P2;PMS_P1;PMS_P2;Temp;Humidity;BMP_temperature;BMP_pressure;BME280_temperature;BME280_humidity;BME280_pressure;Samples;Min_cycle;Max_cycle;Signal;HPM_P1;HPM_P2
2022/06/21 00:02:18;;;;;;;;;17.25;16.75;;;;;20.12;49.60;101053.91;6247890;22;45178;-75
2022/06/21 00:04:44;;;;;;;;;15.25;13.50;;;;;20.09;49.67;101048.69;6248125;22;45506;-74
2022/06/21 00:07:21;;;;;;;;;15.25;14.25;;;;;20.05;49.73;101057.78;6248125;22;45497;-74
2022/06/21 00:09:47;;;;;;;;;11.25;11.25;;;;;20.03;49.96;101049.81;6221079;22;45354;-74
2022/06/21 00:12:12;;;;;;;;;15.00;14.25;;;;;20.01;49.98;101043.63;6220748;22;45372;-74
2022/06/21 00:14:39;;;;;;;;;13.50;11.75;;;;;19.97;49.56;101034.00;6221041;22;47230;-74
2022/06/21 00:17:05;;;;;;;;;16.00;16.00;;;;;19.93;49.88;101029.69;6248494;22;45111;-74
2022/06/21 00:19:31;;;;;;;;;13.00;13.00;;;;;19.89;50.19;101014.72;6248590;22;45223;-74
2022/06/21 00:21:57;;;;;;;;;10.25;10.25;;;;;19.87;49.74;101011.22;6247953;22;45497;-74
2022/06/21 00:24:22;;;;;;;;;13.25;11.50;;;;;19.85;49.89;101012.22;6248195;22;46128;-74
2022/06/21 00:26:48;;;;;;;;;12.00;11.75;;;;;19.81;50.24;101008.81;6248473;22;45377;-74
2022/06/21 00:29:14;;;;;;;;;8.75;8.00;;;;;19.75;50.54;101007.22;6249005;22;45480;-74
2022/06/21 00:31:47;;;;;;;;;14.50;11.75;;;;;19.73;50.08;101018.91;6221051;22;45268;-74
2022/06/21 00:34:19;;;;;;;;;11.25;11.25;;;;;19.72;49.94;101020.69;6248645;22;45565;-74
2022/06/21 00:36:46;;;;;;;;;10.25;10.25;;;;;19.70;50.16;101019.00;6248110;22;45161;-74
2022/06/21 00:39:14;;;;;;;;;9.50;9.25;;;;;19.68;50.70;101020.88;6246197;22;45342;-75
2022/06/21 00:41:49;;;;;;;;;12.25;12.00;;;;;19.65;50.18;101019.16;6247926;22;45433;-75
2022/06/21 00:44:21;;;;;;;;;12.00;12.00;;;;;19.63;50.80;101021.00;6247697;22;45378;-75
2022/06/21 00:46:52;;;;;;;;;13.75;11.25;;;;;19.63;50.58;101028.16;6247979;22;45154;-75
2022/06/21 00:49:41;;;;;;;;;10.50;10.50;;;;;19.60;50.22;101015.78;6248299;22;45361;-74
2022/06/21 00:52:24;;;;;;;;;11.25;8.25;;;;;19.58;50.71;101005.13;6220300;22;45235;-75
2022/06/21 00:54:59;;;;;;;;;9.00;9.00;;;;;19.53;50.30;101007.09;6247703;22;45417;-75
2022/06/21 00:57:42;;;;;;;;;10.75;8.50;;;;;19.49;50.77;101002.81;6248217;22;45165;-74
2022/06/21 01:00:37;;;;;;;;;10.25;9.75;;;;;19.45;50.51;101011.00;6248132;22;45374;-73
2022/06/21 01:03:12;;;;;;;;;10.00;8.25;;;;;19.41;50.74;101028.94;6247843;22;45431;-74
2022/06/21 01:05:43;;;;;;;;;7.25;7.25;;;;;19.40;50.53;101040.53;6247916;22;45383;-74
2022/06/21 01:08:12;;;;;;;;;10.00;9.00;;;;;19.41;50.68;101038.75;6220009;22;45304;-74
2022/06/21 01:10:39;;;;;;;;;7.75;7.75;;;;;19.42;50.76;101040.47;6248591;22;45321;-74
2022/06/21 01:13:14;;;;;;;;;9.50;8.75;;;;;19.45;50.93;101040.38;6248197;22;45160;-73
2022/06/21 01:15:44;;;;;;;;;8.00;8.00;;;;;19.47;50.50;101031.38;6248028;22;45956;-74
2022/06/21 01:18:10;;;;;;;;;8.00;8.00;;;;;19.52;50.60;101041.91;6248122;22;45271;-75
2022/06/21 01:20:41;;;;;;;;;10.00;7.50;;;;;19.55;51.03;101041.78;6220819;22;45379;-74
2022/06/21 01:23:20;;;;;;;;;8.00;8.00;;;;;19.55;51.00;101029.28;6247366;22;45377;-74
2022/06/21 01:25:52;;;;;;;;;10.75;8.75;;;;;19.54;50.81;101038.25;6247935;22;46122;-75
2022/06/21 01:28:19;;;;;;;;;7.25;7.00;;;;;19.57;50.56;101032.78;6248397;22;45215;-74
2022/06/21 01:30:50;;;;;;;;;9.75;9.75;;;;;19.57;50.93;101027.44;6220411;22;45194;-73
2022/06/21 01:33:24;;;;;;;;;8.00;8.00;;;;;19.60;50.59;101027.31;6247982;22;45481;-74
2022/06/21 01:35:54;;;;;;;;;7.00;6.00;;;;;19.60;50.46;101027.31;6247991;22;46532;-76
2022/06/21 01:38:32;;;;;;;;;8.00;7.00;;;;;19.60;50.65;101019.31;6247750;22;45188;-76
2022/06/21 01:41:05;;;;;;;;;7.00;6.00;;;;;19.59;50.61;101033.59;6248524;22;45188;-74
2022/06/21 01:43:32;;;;;;;;;7.75;7.75;;;;;19.59;50.70;101027.38;6247801;22;45306;-75
2022/06/21 01:46:03;;;;;;;;;9.50;7.50;;;;;19.58;50.65;101037.19;6247274;22;45419;-76
2022/06/21 01:48:38;;;;;;;;;4.00;4.00;;;;;19.57;50.08;101050.63;6220237;22;45229;-76
2022/06/21 01:51:09;;;;;;;;;11.50;7.25;;;;;19.56;50.53;101059.53;6248192;22;45331;-76
2022/06/21 01:53:36;;;;;;;;;9.25;8.25;;;;;19.56;50.88;101064.88;6247973;22;45226;-76
2022/06/21 01:56:13;;;;;;;;;9.00;8.00;;;;;19.54;50.83;101072.97;6219548;22;46112;-76
2022/06/21 01:58:50;;;;;;;;;8.75;7.50;;;;;19.52;50.19;101092.63;6248208;22;45378;-76
2022/06/21 02:01:36;;;;;;;;;8.25;7.00;;;;;19.54;50.81;101098.78;6248311;22;45298;-76
2022/06/21 02:04:03;;;;;;;;;7.25;7.25;;;;;19.55;50.21;101125.44;6220217;22;45434;-76
2022/06/21 02:06:33;;;;;;;;;7.00;6.75;;;;;19.54;50.51;101134.41;6247719;22;45307;-76
2022/06/21 02:09:06;;;;;;;;;7.50;7.25;;;;;19.55;50.48;101135.25;6220020;22;45422;-76
2022/06/21 02:11:42;;;;;;;;;7.00;7.00;;;;;19.56;50.52;101134.31;6248141;22;45238;-76
2022/06/21 02:14:29;;;;;;;;;7.25;7.00;;;;;19.57;50.93;101133.41;6248068;22;45249;-76
2022/06/21 02:17:23;;;;;;;;;9.00;7.50;;;;;19.54;50.97;101137.06;6247396;22;45569;-76
2022/06/21 02:19:52;;;;;;;;;8.50;5.75;;;;;19.53;51.20;101127.28;6247628;22;45392;-76
2022/06/21 02:22:22;;;;;;;;;9.00;8.25;;;;;19.56;50.97;101119.16;6247242;22;45358;-76
2022/06/21 02:24:50;;;;;;;;;8.75;8.75;;;;;19.57;50.54;101096.88;6247982;22;45161;-76
2022/06/21 02:27:18;;;;;;;;;8.50;7.50;;;;;19.55;50.87;101095.19;6247603;22;45279;-76
2022/06/21 02:29:50;;;;;;;;;5.25;4.25;;;;;19.52;50.84;101085.50;6248156;22;45148;-76
2022/06/21 02:32:29;;;;;;;;;7.50;7.50;;;;;19.52;51.04;101081.97;6248063;22;45306;-76
2022/06/21 02:35:04;;;;;;;;;9.50;8.75;;;;;19.51;51.17;101067.75;6247942;22;45156;-76
2022/06/21 02:37:30;;;;;;;;;10.50;8.50;;;;;19.51;51.16;101049.03;6248786;22;45200;-76
2022/06/21 02:39:58;;;;;;;;;9.25;9.25;;;;;19.51;50.84;101032.13;6249027;22;45161;-76
2022/06/21 02:42:29;;;;;;;;;11.50;8.50;;;;;19.49;50.85;101020.66;6221502;22;45285;-76
2022/06/21 02:45:01;;;;;;;;;10.50;8.25;;;;;19.44;50.74;101018.13;6248984;22;45239;-75
2022/06/21 02:47:35;;;;;;;;;8.75;8.75;;;;;19.39;51.21;101017.44;6248969;22;45951;-77
2022/06/21 02:50:22;;;;;;;;;9.00;7.25;;;;;19.39;51.07;101018.28;6249260;22;45364;-76
2022/06/21 02:52:50;;;;;;;;;9.75;9.75;;;;;19.39;51.14;101020.09;6248560;22;45299;-75
2022/06/21 02:55:41;;;;;;;;;9.25;8.00;;;;;19.41;51.06;101012.03;6247428;22;45405;-76
2022/06/21 02:58:17;;;;;;;;;9.75;8.25;;;;;19.37;51.35;101009.47;6248170;22;45209;-76
2022/06/21 03:00:43;;;;;;;;;8.00;8.00;;;;;19.36;51.29;101005.06;6247553;22;45305;-76
2022/06/21 03:03:19;;;;;;;;;8.50;7.25;;;;;19.36;51.16;101001.53;6247779;22;45137;-76
2022/06/21 03:05:48;;;;;;;;;9.00;7.25;;;;;19.33;51.91;101001.63;6247702;22;45160;-76
2022/06/21 03:08:15;;;;;;;;;9.00;9.00;;;;;19.36;51.78;101002.38;6247508;22;46095;-76
2022/06/21 03:10:45;;;;;;;;;7.00;6.50;;;;;19.37;51.77;100996.09;6220253;22;45352;-76
2022/06/21 03:13:22;;;;;;;;;6.00;6.00;;;;;19.40;51.43;100987.13;6220179;22;45245;-75
2022/06/21 03:16:16;;;;;;;;;7.00;7.00;;;;;19.39;51.49;100982.72;6219758;22;45435;-73
2022/06/21 03:18:54;;;;;;;;;10.75;9.25;;;;;19.37;51.01;100981.88;6241221;22;46075;-73
2022/06/21 03:21:32;;;;;;;;;8.25;7.75;;;;;19.34;50.91;100963.31;6246768;22;45416;-73
2022/06/21 03:23:59;;;;;;;;;8.50;8.25;;;;;19.35;51.09;100949.03;6246821;22;45300;-73
2022/06/21 03:26:26;;;;;;;;;9.00;9.00;;;;;19.32;50.98;100949.16;6247193;22;45449;-74
2022/06/21 03:28:52;;;;;;;;;9.25;8.75;;;;;19.29;51.64;100943.94;6219545;22;46452;-74
2022/06/21 03:31:23;;;;;;;;;10.00;9.25;;;;;19.27;51.60;100936.00;6246856;22;45255;-73
2022/06/21 03:33:53;;;;;;;;;10.25;9.50;;;;;19.25;51.26;100920.97;6247494;22;45241;-73
2022/06/21 03:36:24;;;;;;;;;6.75;6.75;;;;;19.16;51.48;100912.38;6246851;22;45494;-73
2022/06/21 03:39:12;;;;;;;;;13.25;10.50;;;;;19.12;51.65;100897.38;6246934;22;46445;-73
2022/06/21 03:41:43;;;;;;;;;11.00;9.25;;;;;19.07;51.61;100894.00;6247270;22;45220;-75
2022/06/21 03:44:30;;;;;;;;;11.75;9.75;;;;;18.99;51.61;100892.53;6246912;22;45229;-76
2022/06/21 03:47:12;;;;;;;;;11.00;11.00;;;;;18.95;52.17;100883.75;6219403;22;45336;-75
2022/06/21 03:49:53;;;;;;;;;12.00;11.00;;;;;18.94;52.04;100879.38;6247406;22;46297;-74
2022/06/21 03:52:42;;;;;;;;;7.75;6.50;;;;;18.92;52.14;100866.09;6246825;22;45395;-74
2022/06/21 03:55:23;;;;;;;;;9.00;9.00;;;;;18.92;52.16;100863.44;6246864;22;45346;-76
2022/06/21 03:58:15;;;;;;;;;12.00;10.00;;;;;18.89;52.29;100854.66;6247107;22;45362;-73
2022/06/21 04:00:50;;;;;;;;;10.00;8.00;;;;;18.89;52.15;100857.31;6246626;22;45333;-73
2022/06/21 04:03:31;;;;;;;;;8.25;8.25;;;;;18.85;52.65;100856.56;6247189;22;45285;-75
2022/06/21 04:06:10;;;;;;;;;10.50;10.00;;;;;18.80;52.47;100844.31;6247151;22;45212;-75
2022/06/21 04:08:49;;;;;;;;;9.00;9.00;;;;;18.77;52.68;100845.31;6246997;22;45218;-75
2022/06/21 04:11:22;;;;;;;;;12.00;10.75;;;;;18.76;52.82;100835.53;6247240;22;46345;-76
2022/06/21 04:14:05;;;;;;;;;8.25;8.25;;;;;18.76;53.33;100843.53;6219588;22;45269;-76
2022/06/21 04:16:51;;;;;;;;;12.50;11.00;;;;;18.76;53.56;100837.34;6247076;22;45403;-76
2022/06/21 04:19:48;;;;;;;;;11.00;10.25;;;;;18.72;53.63;100845.44;6183651;22;45278;-76
2022/06/21 04:22:38;;;;;;;;;13.75;11.50;;;;;18.68;54.26;100841.16;6219202;22;47103;-75
2022/06/21 04:25:35;;;;;;;;;9.75;8.00;;;;;18.63;54.60;100827.09;6246951;22;45227;-76
2022/06/21 04:28:17;;;;;;;;;11.25;10.50;;;;;18.60;54.69;100831.66;6218746;22;45355;-75
2022/06/21 04:30:57;;;;;;;;;12.00;11.50;;;;;18.56;55.02;100825.56;6246167;22;45445;-75
2022/06/21 04:33:36;;;;;;;;;14.00;11.50;;;;;18.49;55.36;100829.38;6246648;22;45142;-76
2022/06/21 04:36:36;;;;;;;;;9.25;9.25;;;;;18.45;55.87;100828.63;6220284;22;45939;-75
2022/06/21 04:39:07;;;;;;;;;9.75;9.50;;;;;18.43;55.96;100825.13;6248339;22;45270;-76
2022/06/21 04:42:17;;;;;;;;;12.50;11.50;;;;;18.35;56.36;100831.66;6245991;22;45430;-76
2022/06/21 04:45:02;;;;;;;;;12.50;12.50;;;;;18.31;56.52;100817.56;6124174;23;46153;-76
2022/06/21 04:47:51;;;;;;;;;14.75;13.25;;;;;18.28;56.79;100818.53;6244447;22;45333;-76
2022/06/21 04:50:22;;;;;;;;;15.00;13.75;;;;;18.24;57.14;100810.69;6220672;22;45300;-75
2022/06/21 04:53:20;;;;;;;;;13.75;12.25;;;;;18.20;57.07;100817.94;6247915;22;45182;-75
2022/06/21 04:56:04;;;;;;;;;11.75;11.25;;;;;18.14;57.43;100811.94;6211792;22;47136;-76
2022/06/21 04:58:30;;;;;;;;;10.75;10.75;;;;;18.08;57.71;100805.88;6248245;22;45431;-76
2022/06/21 05:00:57;;;;;;;;;11.25;11.25;;;;;18.04;57.54;100803.38;6220701;22;45399;-73
2022/06/21 05:03:38;;;;;;;;;14.75;14.00;;;;;18.04;57.23;100803.38;6248371;22;45436;-75
2022/06/21 05:06:04;;;;;;;;;15.00;13.00;;;;;18.03;57.33;100809.63;6220415;22;47288;-75
2022/06/21 05:08:30;;;;;;;;;14.50;13.00;;;;;18.02;57.55;100808.75;6247683;22;45268;-75
2022/06/21 05:10:59;;;;;;;;;13.25;12.00;;;;;18.02;57.58;100815.91;6248461;22;45428;-76
2022/06/21 05:13:28;;;;;;;;;12.25;12.25;;;;;18.04;57.50;100822.91;6220389;22;45196;-76
2022/06/21 05:15:57;;;;;;;;;12.25;11.50;;;;;18.06;57.67;100836.16;6248022;22;46117;-75
2022/06/21 05:18:51;;;;;;;;;14.00;14.00;;;;;18.07;57.31;100859.25;6247786;22;45280;-76
2022/06/21 05:21:25;;;;;;;;;14.00;13.75;;;;;18.06;57.24;100874.34;6236055;22;45321;-77
2022/06/21 05:23:50;;;;;;;;;10.75;9.50;;;;;18.07;57.67;100876.09;6247941;22;45234;-76
2022/06/21 05:26:26;;;;;;;;;13.00;12.25;;;;;18.13;57.52;100858.16;6247914;22;45303;-76
2022/06/21 05:28:57;;;;;;;;;16.25;14.25;;;;;18.20;57.75;100857.00;6248117;22;45346;-76
2022/06/21 05:31:31;;;;;;;;;14.75;14.00;;;;;18.29;57.59;100868.25;6247870;22;45313;-76
2022/06/21 05:34:07;;;;;;;;;13.50;12.25;;;;;18.38;58.00;100869.72;6248158;22;45193;-76
2022/06/21 05:36:38;;;;;;;;;14.50;14.25;;;;;18.45;57.47;100862.41;6247845;22;45172;-75
2022/06/21 05:39:20;;;;;;;;;14.25;14.25;;;;;18.51;57.05;100873.72;6245785;22;45165;-76
2022/06/21 05:41:50;;;;;;;;;14.50;13.00;;;;;18.61;57.37;100876.09;6248163;22;45532;-76
2022/06/21 05:44:34;;;;;;;;;14.00;12.50;;;;;18.71;57.07;100873.03;6247535;22;45478;-74
2022/06/21 05:47:07;;;;;;;;;18.00;18.00;;;;;18.80;56.60;100863.84;6247457;22;45196;-75
2022/06/21 05:49:35;;;;;;;;;17.75;16.25;;;;;18.81;56.43;100865.59;6247704;22;45365;-74
2022/06/21 05:52:06;;;;;;;;;14.75;14.50;;;;;18.82;57.02;100862.00;6248171;22;45102;-75
2022/06/21 05:54:41;;;;;;;;;18.50;16.00;;;;;18.88;56.50;100874.25;6246012;22;45424;-76
2022/06/21 05:57:10;;;;;;;;;20.00;17.00;;;;;18.90;56.53;100859.06;6246995;22;45236;-76
2022/06/21 05:59:36;;;;;;;;;16.25;13.50;;;;;18.92;56.61;100847.41;6245648;22;45333;-75
2022/06/21 06:02:13;;;;;;;;;21.25;21.00;;;;;18.91;56.46;100835.00;6247935;22;45186;-75
2022/06/21 06:04:58;;;;;;;;;16.50;16.00;;;;;18.95;56.36;100843.75;6247802;22;45281;-76
2022/06/21 06:07:36;;;;;;;;;14.00;13.25;;;;;18.98;56.42;100853.44;6247346;22;45421;-75
2022/06/21 06:10:05;;;;;;;;;16.25;16.25;;;;;19.04;55.99;100856.75;6247844;22;45307;-76
2022/06/21 06:12:36;;;;;;;;;15.50;15.50;;;;;19.10;56.18;100863.66;6244526;22;45461;-76
2022/06/21 06:15:11;;;;;;;;;12.75;12.75;;;;;19.16;55.76;100864.31;6247689;22;45232;-76
2022/06/21 06:17:45;;;;;;;;;15.00;12.75;;;;;19.26;55.97;100848.81;6245603;22;46994;-75
2022/06/21 06:20:35;;;;;;;;;15.75;15.00;;;;;19.38;55.72;100842.16;6247637;22;45302;-76
2022/06/21 06:23:11;;;;;;;;;11.75;10.00;;;;;19.45;55.40;100821.41;6220325;22;45410;-76
2022/06/21 06:25:45;;;;;;;;;17.50;14.75;;;;;19.51;55.37;100822.03;6248059;22;45173;-76
2022/06/21 06:28:44;;;;;;;;;15.00;13.75;;;;;19.54;54.94;100810.34;6220158;22;45743;-76
2022/06/21 06:31:21;;;;;;;;;9.25;8.75;;;;;19.48;55.27;100821.28;6179635;22;45406;-76
2022/06/21 06:33:55;;;;;;;;;14.00;11.75;;;;;19.46;54.97;100826.69;6220244;22;45337;-77
2022/06/21 06:36:25;;;;;;;;;12.75;12.75;;;;;19.45;54.99;100832.94;6245168;22;45379;-78
2022/06/21 06:38:50;;;;;;;;;11.00;10.50;;;;;19.39;54.89;100835.88;6246943;22;45571;-78
2022/06/21 06:41:26;;;;;;;;;13.00;13.00;;;;;19.37;55.35;100838.56;6247427;22;45208;-77
2022/06/21 06:43:59;;;;;;;;;10.00;8.00;;;;;19.38;55.52;100855.50;6247650;22;45091;-78
2022/06/21 06:46:39;;;;;;;;;13.25;11.75;;;;;19.37;55.24;100854.59;6247295;22;45203;-76
2022/06/21 06:49:26;;;;;;;;;13.75;13.75;;;;;19.38;55.17;100861.69;6219620;22;47199;-76
2022/06/21 06:52:18;;;;;;;;;14.75;13.50;;;;;19.43;55.39;100872.19;6219611;22;45320;-76
2022/06/21 06:55:11;;;;;;;;;13.75;12.50;;;;;19.55;55.23;100874.38;6230153;22;45418;-75
2022/06/21 06:57:51;;;;;;;;;10.25;10.25;;;;;19.68;55.26;100872.16;6277565;22;45179;-76
2022/06/21 07:00:21;;;;;;;;;13.50;13.50;;;;;19.74;54.88;100865.69;6278542;22;45310;-77
2022/06/21 07:03:21;;;;;;;;;15.50;13.25;;;;;19.82;54.98;100875.13;6250303;22;45224;-76
2022/06/21 07:05:52;;;;;;;;;14.50;13.75;;;;;19.92;54.77;100877.44;6243525;22;45347;-77
2022/06/21 07:08:27;;;;;;;;;11.25;11.25;;;;;19.98;54.29;100878.06;6246068;22;45511;-76
2022/06/21 07:10:54;;;;;;;;;12.75;12.00;;;;;20.02;54.00;100873.44;6276150;22;46327;-77
2022/06/21 07:13:20;;;;;;;;;16.00;16.00;;;;;19.99;53.97;100873.56;6276179;22;45587;-76
2022/06/21 07:15:48;;;;;;;;;18.50;17.00;;;;;19.93;54.06;100881.84;6250302;22;45286;-78
2022/06/21 07:18:28;;;;;;;;;14.75;14.75;;;;;19.90;53.69;100890.84;6278480;22;45355;-79
2022/06/21 07:20:55;;;;;;;;;18.50;18.00;;;;;19.96;54.30;100895.94;6272945;22;45714;-79
2022/06/21 07:23:24;;;;;;;;;15.25;14.75;;;;;20.00;54.11;100900.25;6276192;22;45559;-80
2022/06/21 07:25:58;;;;;;;;;11.25;11.00;;;;;20.09;54.11;100904.34;6276538;22;45105;-86
2022/06/21 07:28:44;;;;;;;;;15.75;15.25;;;;;20.14;54.27;100909.50;6276059;22;45457;-81
2022/06/21 07:31:19;;;;;;;;;16.75;15.00;;;;;20.20;53.70;100903.91;6248230;22;47042;-79
2022/06/21 07:34:08;;;;;;;;;17.75;16.00;;;;;20.36;53.96;100912.16;6249135;22;45193;-80
2022/06/21 07:36:39;;;;;;;;;15.00;13.75;;;;;20.53;54.12;100908.78;6247821;22;45354;-81
2022/06/21 07:39:12;;;;;;;;;20.25;16.75;;;;;20.67;53.72;100903.75;6276463;22;45240;-80
2022/06/21 07:41:48;;;;;;;;;15.00;14.75;;;;;20.81;53.42;100901.34;6275607;22;45350;-80
2022/06/21 07:44:32;;;;;;;;;13.00;13.00;;;;;20.89;52.88;100895.66;6275543;22;45421;-79
2022/06/21 07:47:03;;;;;;;;;17.25;15.50;;;;;20.96;52.89;100890.91;6276188;22;45440;-79
2022/06/21 07:49:52;;;;;;;;;15.00;15.00;;;;;21.06;52.75;100903.81;6277927;22;45346;-89
2022/06/21 07:52:24;;;;;;;;;18.00;16.25;;;;;21.21;52.63;100917.44;6247971;22;48091;-81
2022/06/21 07:54:57;;;;;;;;;18.00;16.50;;;;;21.43;52.31;100915.53;6273993;22;45350;-80
2022/06/21 07:57:38;;;;;;;;;17.00;17.00;;;;;21.68;51.63;100909.03;6275748;22;45272;-80
2022/06/21 08:00:10;;;;;;;;;16.50;15.75;;;;;21.94;51.71;100903.28;6273626;22;45564;-80
2022/06/21 08:08:40;;;;;;;;;16.25;13.75;;;;;22.63;50.00;100902.56;6276298;22;45283;-78
2022/06/21 08:11:18;;;;;;;;;14.75;14.00;;;;;22.63;50.00;100899.00;6278240;22;45256;-78
2022/06/21 08:13:44;;;;;;;;;16.50;16.50;;;;;22.59;49.99;100900.13;6249246;22;48178;-78
2022/06/21 08:16:15;;;;;;;;;18.00;14.75;;;;;22.59;50.25;100895.63;6249148;22;45432;-78
2022/06/21 08:18:51;;;;;;;;;17.50;13.25;;;;;22.67;49.98;100908.66;6248393;22;45342;-78
2022/06/21 08:21:22;;;;;;;;;14.25;14.25;;;;;22.79;50.03;100912.50;6277894;22;45137;-78
2022/06/21 08:24:10;;;;;;;;;15.00;15.00;;;;;22.93;49.69;100919.84;6275997;22;46433;-79
2022/06/21 08:26:44;;;;;;;;;18.00;18.00;;;;;22.98;49.00;100909.75;6249835;22;45520;-79
2022/06/21 08:29:22;;;;;;;;;16.00;13.00;;;;;23.01;48.90;100923.88;6277980;22;45367;-78
2022/06/21 08:31:55;;;;;;;;;13.50;13.50;;;;;23.08;49.17;100925.31;6275155;22;45571;-78
2022/06/21 08:34:37;;;;;;;;;14.50;14.50;;;;;23.22;48.64;100915.63;6249421;22;48046;-78
2022/06/21 08:37:08;;;;;;;;;16.00;14.25;;;;;23.41;48.42;100921.75;6276271;22;45375;-79
2022/06/21 08:39:44;;;;;;;;;18.25;16.50;;;;;23.59;48.57;100919.00;6277015;22;45248;-79
2022/06/21 08:42:27;;;;;;;;;17.75;15.00;;;;;23.78;47.83;100922.44;6276998;22;45638;-79
2022/06/21 08:45:42;;;;;;;;;18.25;17.00;;;;;24.01;47.30;100914.91;6277392;22;46284;-79
2022/06/21 08:48:30;;;;;;;;;19.00;16.75;;;;;24.15;47.11;100907.75;6249175;22;45965;-78
2022/06/21 08:51:19;;;;;;;;;16.00;14.25;;;;;24.26;47.49;100911.66;6277910;22;45414;-79
2022/06/21 08:54:10;;;;;;;;;17.75;16.50;;;;;24.29;47.02;100914.16;6276726;22;45606;-78
2022/06/21 08:56:55;;;;;;;;;13.50;13.50;;;;;24.32;46.85;100906.78;6277172;22;45427;-78
2022/06/21 08:59:45;;;;;;;;;17.75;17.50;;;;;24.30;46.65;100903.34;6276524;22;45434;-78
2022/06/21 09:02:33;;;;;;;;;17.50;17.50;;;;;24.33;46.67;100899.59;6249328;22;45502;-78
2022/06/21 09:05:31;;;;;;;;;15.00;14.00;;;;;24.29;46.25;100896.19;6276461;22;45363;-79
2022/06/21 09:08:02;;;;;;;;;17.50;16.75;;;;;24.29;46.71;100896.19;6276809;22;46410;-82
2022/06/21 09:10:52;;;;;;;;;16.75;15.50;;;;;24.32;47.11;100897.84;6276193;22;45310;-80
2022/06/21 09:13:33;;;;;;;;;17.00;16.00;;;;;24.38;46.48;100892.97;6248771;22;45362;-80
2022/06/21 09:16:07;;;;;;;;;20.25;18.75;;;;;24.43;47.14;100895.38;6276538;22;45269;-80
2022/06/21 09:18:41;;;;;;;;;18.25;18.25;;;;;24.49;46.82;100897.75;6272549;22;47547;-82
2022/06/21 09:21:26;;;;;;;;;16.25;16.00;;;;;24.46;46.85;100906.03;6274650;22;45290;-81
2022/06/21 09:24:04;;;;;;;;;16.75;16.50;;;;;24.48;46.24;100909.47;6248395;22;45298;-81
2022/06/21 09:26:35;;;;;;;;;18.00;17.00;;;;;24.57;46.29;100903.53;6274969;22;45566;-81
2022/06/21 09:29:18;;;;;;;;;17.50;17.50;;;;;24.63;46.44;100899.63;6273742;22;46911;-81
2022/06/21 09:32:02;;;;;;;;;19.25;16.75;;;;;24.69;46.37;100895.69;6274316;22;45339;-82
2022/06/21 09:34:46;;;;;;;;;17.50;17.50;;;;;24.70;46.51;100902.78;6247825;22;45688;-82
2022/06/21 09:37:36;;;;;;;;;17.50;15.25;;;;;24.83;46.41;100906.47;6274527;22;45682;-81
2022/06/21 09:40:27;;;;;;;;;17.75;17.00;;;;;25.07;45.90;100910.38;6249120;22;47311;-81
2022/06/21 09:43:11;;;;;;;;;13.75;13.75;;;;;25.28;45.41;100901.94;6277029;22;45770;-79
2022/06/21 09:46:00;;;;;;;;;15.00;14.25;;;;;25.43;45.07;100892.03;6273727;22;45458;-81
2022/06/21 09:48:44;;;;;;;;;15.25;15.25;;;;;25.49;45.34;100891.63;6248113;22;45426;-81
2022/06/21 09:51:29;;;;;;;;;15.75;15.75;;;;;25.56;45.26;100889.44;6276031;22;46180;-80
2022/06/21 09:54:15;;;;;;;;;19.00;18.50;;;;;25.62;44.77;100891.72;6250950;22;45717;-81
2022/06/21 09:56:52;;;;;;;;;19.75;19.75;;;;;25.71;44.61;100892.00;6279465;22;45171;-82
2022/06/21 09:59:31;;;;;;;;;16.25;16.00;;;;;25.74;44.60;100889.09;6279157;22;45288;-84
2022/06/21 10:02:05;;;;;;;;;17.50;17.50;;;;;25.56;44.62;100887.59;6249337;22;47379;-81
2022/06/21 10:04:38;;;;;;;;;19.75;19.75;;;;;25.37;44.38;100890.59;6250112;22;45438;-88
2022/06/21 10:07:04;;;;;;;;;20.50;18.25;;;;;25.21;44.63;100877.22;6278525;22;45365;-84
2022/06/21 10:10:06;;;;;;;;;19.50;18.50;;;;;25.06;44.86;100876.31;6276497;22;45415;-81
2022/06/21 10:12:39;;;;;;;;;22.75;20.25;;;;;24.94;45.17;100877.09;6277864;22;45269;-85
2022/06/21 10:15:35;;;;;;;;;21.25;20.50;;;;;24.82;45.92;100869.75;6278281;22;45263;-78
2022/06/21 10:18:20;;;;;;;;;21.50;20.50;;;;;24.71;46.05;100867.72;6277825;22;45262;-77
2022/06/21 10:20:56;;;;;;;;;16.50;15.50;;;;;24.73;46.42;100860.41;6276953;22;45257;-79
2022/06/21 10:23:24;;;;;;;;;20.75;19.00;;;;;24.76;45.96;100859.34;6249891;22;48066;-79
2022/06/21 10:25:59;;;;;;;;;22.00;21.00;;;;;24.75;46.29;100861.19;6275984;22;45331;-87
2022/06/21 10:28:41;;;;;;;;;18.00;18.00;;;;;24.69;45.83;100864.25;6278091;22;45327;-79
2022/06/21 10:31:36;;;;;;;;;22.50;20.50;;;;;24.63;46.59;100849.31;6250400;22;45189;-82
2022/06/21 10:38:27;;;;;;;;;17.00;15.00;;;;;24.63;46.79;100843.06;6154347;23;45263;-83
2022/06/21 10:42:46;;;;;;;;;21.50;20.25;;;;;24.64;47.09;100837.63;6176417;23;45503;-83
2022/06/21 10:45:41;;;;;;;;;18.75;17.50;;;;;24.67;46.75;100833.84;6276852;22;45351;-83
2022/06/21 10:52:38;;;;;;;;;;;;;;;;;;;;;
2022/06/21 10:55:42;;;;;;;;;18.25;16.75;;;;;24.95;46.89;100824.94;6255499;22;67757;-82
2022/06/21 10:58:36;;;;;;;;;18.00;16.50;;;;;25.01;46.89;100827.22;6274470;22;45546;-82
2022/06/21 11:01:39;;;;;;;;;18.25;17.50;;;;;25.08;46.91;100825.03;6220028;22;46931;-82
2022/06/21 11:04:43;;;;;;;;;16.50;15.00;;;;;25.15;46.54;100817.41;6265744;22;45224;-82
2022/06/21 11:07:29;;;;;;;;;14.50;14.50;;;;;25.29;46.86;100820.16;6247092;22;45314;-81
2022/06/21 11:10:22;;;;;;;;;15.50;14.00;;;;;25.38;46.08;100815.97;6249437;22;45300;-82
2022/06/21 11:13:16;;;;;;;;;14.25;14.00;;;;;25.42;46.32;100813.00;6248991;22;47523;-81
2022/06/21 11:16:18;;;;;;;;;15.50;13.75;;;;;25.50;46.08;100813.38;6277153;22;45370;-81
2022/06/21 11:19:27;;;;;;;;;16.00;13.67;;;;;25.61;46.37;100815.34;6277946;22;45492;-81
2022/06/21 11:22:24;;;;;;;;;18.75;15.00;;;;;25.73;45.65;100809.13;6277469;22;45480;-80
2022/06/21 11:25:20;;;;;;;;;13.00;11.67;;;;;25.84;46.16;100811.16;6276227;22;45998;-81
2022/06/21 11:28:17;;;;;;;;;11.33;10.67;;;;;26.02;45.92;100809.06;6277483;22;45252;-80
2022/06/21 11:31:24;;;;;;;;;12.33;12.33;;;;;26.25;45.49;100804.81;6249900;22;45699;-84
2022/06/21 11:34:32;;;;;;;;;14.67;12.67;;;;;26.39;45.28;100804.72;6267534;22;45469;-85
2022/06/21 11:37:51;;;;;;;;;14.33;14.33;;;;;26.50;45.21;100813.91;6279905;22;45410;-79
2022/06/21 12:53:50;;;;;;;;;;;;;;;;;;;;;
2022/06/21 13:32:00;;;;;;;;;;;;;;;;;;;;;
2022/06/21 13:39:10;;;;;;;;;;;;;;;;;;;;;
2022/06/21 13:46:06;;;;;;;;;;;;;;;;;;;;;
2022/06/21 13:50:29;;;;;;;;;;;;;;;;;;;;;
2022/06/21 13:53:16;;;;;;;;;;;;;;;;;;;;;
2022/06/21 14:06:57;;;;;;;;;;;;;;;;;;;;;
2022/06/21 14:09:54;;;;;;;;;9.00;9.00;;;;;31.00;37.36;100708.66;6142354;22;75131;-91
2022/06/21 14:12:45;;;;;;;;;10.67;10.67;;;;;31.13;37.25;100692.94;6216689;22;45560;-91
2022/06/21 14:15:43;;;;;;;;;8.00;8.00;;;;;31.29;36.87;100703.28;6217368;22;45323;-89
2022/06/21 14:18:12;;;;;;;;;8.67;8.67;;;;;31.24;36.33;100697.41;6215784;22;45410;-83
2022/06/21 14:21:11;;;;;;;;;8.67;7.00;;;;;31.09;36.40;100702.41;6215256;22;47616;-88
2022/06/21 14:24:06;;;;;;;;;6.67;6.67;;;;;30.96;36.90;100699.91;6171897;22;45259;-91
2022/06/21 14:26:42;;;;;;;;;10.00;10.00;;;;;30.95;36.82;100695.50;6212983;22;45118;-84
2022/06/21 14:29:21;;;;;;;;;11.33;11.00;;;;;30.92;36.98;100690.31;6190720;22;45469;-90
2022/06/21 14:32:20;;;;;;;;;11.67;11.67;;;;;31.01;36.96;100696.78;6192112;22;45456;-91
2022/06/21 14:35:08;;;;;;;;;9.67;9.67;;;;;31.12;36.69;100690.38;6216529;22;45443;-87
2022/06/21 14:37:52;;;;;;;;;10.67;10.00;;;;;31.27;36.56;100686.22;6219138;22;45308;-90
2022/06/21 14:40:20;;;;;;;;;11.25;9.75;;;;;31.21;36.31;100689.53;6195385;22;45455;-89
2022/06/21 14:42:52;;;;;;;;;9.00;8.67;;;;;31.05;36.59;100678.31;6192933;22;47216;-89
2022/06/21 14:45:32;;;;;;;;;9.67;9.33;;;;;30.94;36.50;100682.03;6191990;22;45142;-92